createdAt,value
2022-10-02T00:02:38.421Z,63.90
2022-10-02T00:05:16.992Z,63.80
2022-10-02T00:08:06.466Z,63.80
2022-10-02T00:10:41.695Z,63.20
2022-10-02T00:13:15.299Z,63.70
2022-10-02T00:15:42.945Z,63.90
2022-10-02T00:18:17.713Z,63.60
2022-10-02T00:20:50.051Z,63.90
2022-10-02T00:23:28.055Z,62.10
2022-10-02T00:26:06.689Z,63.40
2022-10-02T00:28:53.297Z,64.00
2022-10-02T00:31:45.783Z,64.00
2022-10-02T00:34:40.272Z,64.00
2022-10-02T00:37:20.922Z,64.00
2022-10-02T00:40:15.020Z,63.60
2022-10-02T00:43:04.501Z,64.10
2022-10-02T00:45:59.493Z,64.10
2022-10-02T00:48:47.231Z,63.60
2022-10-02T00:51:48.319Z,63.60
2022-10-02T00:54:44.916Z,63.60
2022-10-02T00:57:34.524Z,64.40
2022-10-02T01:00:20.367Z,64.30
2022-10-02T01:03:23.760Z,64.30
2022-10-02T01:05:50.705Z,64.20
2022-10-02T01:08:17.500Z,64.50
2022-10-02T01:10:45.224Z,64.70
2022-10-02T01:13:12.712Z,64.50
2022-10-02T01:15:48.444Z,64.50
2022-10-02T01:18:15.270Z,64.70
2022-10-02T01:20:48.632Z,64.30
2022-10-02T01:24:05.399Z,64.50
2022-10-02T01:26:32.116Z,62.90
2022-10-02T01:28:58.912Z,64.20
2022-10-02T01:31:25.714Z,64.20
2022-10-02T01:33:52.767Z,64.10
2022-10-02T01:36:20.408Z,64.10
2022-10-02T01:38:48.913Z,64.00
2022-10-02T01:41:15.501Z,63.60
2022-10-02T01:43:49.308Z,64.00
2022-10-02T01:46:32.000Z,64.20
2022-10-02T01:49:36.637Z,64.20
2022-10-02T01:52:10.303Z,63.60
2022-10-02T01:55:01.550Z,64.40
2022-10-02T01:57:53.031Z,64.10
2022-10-02T02:00:22.380Z,64.40
2022-10-02T02:03:13.314Z,63.90
2022-10-02T02:05:58.908Z,63.70
2022-10-02T02:09:05.285Z,63.60
2022-10-02T02:11:32.858Z,63.20
2022-10-02T02:14:14.591Z,63.80
2022-10-02T02:16:42.731Z,64.20
2022-10-02T02:19:29.939Z,63.90
2022-10-02T02:22:12.602Z,63.90
2022-10-02T02:25:10.115Z,64.40
2022-10-02T02:27:41.456Z,63.60
2022-10-02T02:30:12.000Z,64.10
2022-10-02T02:32:50.187Z,63.90
2022-10-02T02:35:24.468Z,64.20
2022-10-02T02:37:55.138Z,63.90
2022-10-02T02:40:28.565Z,63.80
2022-10-02T02:43:03.001Z,64.10
2022-10-02T02:45:35.256Z,64.10
2022-10-02T02:48:11.754Z,63.90
2022-10-02T02:50:43.385Z,63.90
2022-10-02T02:53:24.707Z,64.00
2022-10-02T02:56:05.827Z,64.10
2022-10-02T02:58:48.752Z,63.90
2022-10-02T03:01:15.464Z,64.00
2022-10-02T03:03:42.243Z,63.70
2022-10-02T03:06:20.810Z,63.60
2022-10-02T03:08:50.434Z,63.80
2022-10-02T03:11:46.788Z,63.60
2022-10-02T03:14:37.315Z,63.30
2022-10-02T03:17:19.829Z,63.60
2022-10-02T03:20:12.614Z,63.70
2022-10-02T03:22:45.394Z,64.10
2022-10-02T03:25:31.879Z,64.10
2022-10-02T03:28:04.050Z,64.00
2022-10-02T03:30:32.102Z,64.00
2022-10-02T03:33:01.008Z,63.60
2022-10-02T03:35:29.157Z,63.80
2022-10-02T03:38:00.932Z,63.80
2022-10-02T03:40:27.610Z,63.90
2022-10-02T03:42:58.293Z,63.90
2022-10-02T03:45:49.584Z,63.90
2022-10-02T03:48:13.069Z,64.00
2022-10-02T03:50:39.635Z,63.80
2022-10-02T03:53:21.288Z,64.00
2022-10-02T03:56:09.935Z,64.00
2022-10-02T03:58:41.174Z,63.30
2022-10-02T04:01:22.714Z,64.00
2022-10-02T04:03:57.522Z,64.10
2022-10-02T04:06:44.901Z,64.00
2022-10-02T04:09:19.468Z,64.00
2022-10-02T04:12:11.957Z,64.00
2022-10-02T04:14:45.162Z,63.10
2022-10-02T04:17:20.613Z,63.90
2022-10-02T04:20:28.736Z,63.80
2022-10-02T04:23:09.052Z,63.90
2022-10-02T04:25:41.505Z,63.70
2022-10-02T04:28:14.551Z,63.80
2022-10-02T04:30:41.695Z,64.10
2022-10-02T04:33:18.578Z,63.60
2022-10-02T04:35:59.692Z,63.90
2022-10-02T04:38:55.700Z,64.00
2022-10-02T04:41:28.217Z,63.20
2022-10-02T04:44:27.718Z,63.70
2022-10-02T04:46:59.505Z,63.30
2022-10-02T04:49:44.831Z,63.60
2022-10-02T04:52:11.376Z,63.50
2022-10-02T04:54:56.940Z,63.80
2022-10-02T04:58:08.850Z,64.00
2022-10-02T05:01:15.018Z,63.00
2022-10-02T05:04:03.756Z,63.20
2022-10-02T05:06:58.736Z,63.70
2022-10-02T05:09:46.341Z,63.80
2022-10-02T05:12:35.027Z,63.20
2022-10-02T05:15:23.445Z,63.30
2022-10-02T05:18:15.805Z,63.80
2022-10-02T05:21:05.928Z,63.30
2022-10-02T05:24:11.798Z,63.60
2022-10-02T05:26:44.400Z,63.10
2022-10-02T05:29:23.778Z,61.60
2022-10-02T05:32:15.763Z,63.40
2022-10-02T05:35:06.053Z,63.50
2022-10-02T05:37:52.334Z,63.30
2022-10-02T05:40:33.662Z,63.30
2022-10-02T05:43:15.122Z,63.50
2022-10-02T05:45:52.252Z,63.60
2022-10-02T05:48:23.397Z,63.70
2022-10-02T05:50:54.991Z,63.60
2022-10-02T05:53:36.236Z,63.90
2022-10-02T05:56:23.683Z,63.80
2022-10-02T05:59:01.019Z,63.80
2022-10-02T06:01:33.944Z,63.90
2022-10-02T06:04:06.843Z,63.90
2022-10-02T06:06:41.129Z,63.70
2022-10-02T06:09:17.697Z,64.00
2022-10-02T06:12:09.072Z,63.80
2022-10-02T06:15:04.414Z,63.40
2022-10-02T06:17:37.943Z,63.80
2022-10-02T06:20:08.800Z,63.80
2022-10-02T06:22:50.861Z,63.70
2022-10-02T06:25:40.526Z,64.00
2022-10-02T06:28:17.269Z,64.00
2022-10-02T06:30:50.976Z,63.90
2022-10-02T06:33:23.015Z,64.20
2022-10-02T06:36:17.820Z,64.30
2022-10-02T06:39:15.317Z,63.90
2022-10-02T06:42:27.275Z,64.00
2022-10-02T06:44:59.176Z,63.70
2022-10-02T06:47:35.215Z,64.10
2022-10-02T06:50:32.625Z,64.10
2022-10-02T06:53:14.573Z,63.70
2022-10-02T06:56:19.235Z,64.10
2022-10-02T06:59:34.706Z,63.90
2022-10-02T07:02:32.836Z,64.20
2022-10-02T07:05:27.556Z,64.50
2022-10-02T07:08:22.213Z,64.00
2022-10-02T07:11:22.537Z,64.50
2022-10-02T07:14:01.744Z,63.90
2022-10-02T07:16:45.218Z,64.60
2022-10-02T07:19:44.951Z,64.70
2022-10-02T07:22:45.438Z,64.40
2022-10-02T07:25:40.168Z,64.50
2022-10-02T07:28:12.599Z,64.90
2022-10-02T07:30:56.282Z,64.40
2022-10-02T07:33:45.265Z,64.70
2022-10-02T07:36:25.626Z,64.50
2022-10-02T07:39:08.700Z,64.60
2022-10-02T07:41:54.281Z,64.90
2022-10-02T07:44:39.529Z,64.00
2022-10-02T07:47:37.255Z,63.90
2022-10-02T07:50:09.776Z,64.40
2022-10-02T07:52:57.900Z,64.20
2022-10-02T07:55:25.869Z,64.60
2022-10-02T07:58:16.887Z,64.50
2022-10-02T08:01:05.851Z,64.80
2022-10-02T08:03:39.029Z,63.80
2022-10-02T08:06:07.034Z,64.20
2022-10-02T08:08:42.310Z,64.30
2022-10-02T08:11:21.212Z,64.80
2022-10-02T08:14:00.889Z,64.40
2022-10-02T08:16:33.446Z,64.50
2022-10-02T08:19:08.804Z,64.60
2022-10-02T08:21:40.977Z,64.60
2022-10-02T08:24:52.167Z,64.70
2022-10-02T08:27:25.135Z,64.40
2022-10-02T08:30:00.118Z,64.40
2022-10-02T08:32:34.863Z,64.20
2022-10-02T08:35:05.605Z,64.60
2022-10-02T08:37:46.108Z,64.30
2022-10-02T08:40:24.969Z,64.70
2022-10-02T08:43:13.943Z,64.70
2022-10-02T08:46:02.604Z,64.00
2022-10-02T08:48:44.104Z,63.80
2022-10-02T08:51:39.199Z,64.40
2022-10-02T08:54:23.987Z,63.80
2022-10-02T08:57:00.325Z,63.90
2022-10-02T09:00:09.598Z,64.20
2022-10-02T09:02:45.233Z,64.30
2022-10-02T09:05:49.232Z,64.50
2022-10-02T09:08:41.455Z,64.10
2022-10-02T09:11:10.988Z,63.80
2022-10-02T09:14:15.012Z,64.80
2022-10-02T09:17:10.896Z,64.20
2022-10-02T09:19:48.847Z,64.50
2022-10-02T09:23:00.273Z,64.90
2022-10-02T09:25:45.576Z,64.90
2022-10-02T09:28:30.260Z,64.80
2022-10-02T09:31:26.290Z,64.60
2022-10-02T09:34:17.377Z,65.00
2022-10-02T09:37:08.587Z,65.00
2022-10-02T09:39:56.984Z,64.80
2022-10-02T09:42:54.552Z,64.80
2022-10-02T09:45:53.744Z,64.90
2022-10-02T09:48:53.391Z,64.50
2022-10-02T09:51:44.772Z,64.70
2022-10-02T09:54:32.208Z,64.30
2022-10-02T09:57:38.901Z,64.20
2022-10-02T10:00:34.401Z,64.60
2022-10-02T10:03:18.995Z,64.60
2022-10-02T10:06:07.397Z,63.30
2022-10-02T10:08:58.304Z,65.20
2022-10-02T10:11:31.023Z,65.00
2022-10-02T10:14:25.428Z,65.50
2022-10-02T10:17:25.948Z,65.50
2022-10-02T10:20:17.440Z,65.10
2022-10-02T10:23:06.530Z,64.90
2022-10-02T10:25:57.284Z,64.60
2022-10-02T10:28:42.725Z,64.20
2022-10-02T10:31:36.648Z,63.70
2022-10-02T10:34:37.291Z,63.70
2022-10-02T10:37:48.091Z,63.40
2022-10-02T10:40:38.483Z,63.10
2022-10-02T10:43:27.373Z,63.10
2022-10-02T10:45:54.101Z,62.70
2022-10-02T10:49:10.478Z,62.70
2022-10-02T10:52:07.439Z,62.50
2022-10-02T10:55:00.548Z,62.20
2022-10-02T10:57:51.953Z,62.00
2022-10-02T11:00:26.872Z,62.00
2022-10-02T11:03:07.821Z,61.90
2022-10-02T11:05:53.319Z,61.70
2022-10-02T11:08:32.534Z,61.90
2022-10-02T11:11:18.050Z,61.80
2022-10-02T11:14:12.755Z,61.80
2022-10-02T11:17:14.206Z,61.60
2022-10-02T11:19:57.721Z,61.50
2022-10-02T11:22:37.755Z,61.50
2022-10-02T11:25:13.983Z,61.60
2022-10-02T11:28:28.421Z,61.60
2022-10-02T11:31:19.162Z,61.60
2022-10-02T11:33:57.859Z,61.40
2022-10-02T11:36:41.534Z,61.40
2022-10-02T11:39:42.970Z,61.50
2022-10-02T11:42:15.444Z,61.40
2022-10-02T11:44:51.668Z,61.30
2022-10-02T11:47:21.021Z,61.40
2022-10-02T11:50:02.178Z,61.40
2022-10-02T11:52:49.788Z,61.40
2022-10-02T11:55:47.192Z,61.20
2022-10-02T11:58:37.482Z,61.10
2022-10-02T12:01:13.286Z,60.80
2022-10-02T12:03:59.343Z,61.20
2022-10-02T12:07:05.687Z,61.20
2022-10-02T12:09:55.748Z,60.90
2022-10-02T12:12:51.944Z,61.10
2022-10-02T12:15:46.560Z,60.90
2022-10-02T12:18:36.434Z,61.10
2022-10-02T12:21:21.855Z,60.80
2022-10-02T12:24:54.879Z,60.60
2022-10-02T12:27:39.297Z,60.80
2022-10-02T12:30:13.946Z,60.10
2022-10-02T12:32:46.595Z,60.20
2022-10-02T12:35:43.452Z,61.20
2022-10-02T12:38:37.677Z,60.10
2022-10-02T12:41:34.652Z,60.30
2022-10-02T12:44:25.238Z,60.50
2022-10-02T12:46:59.521Z,60.50
2022-10-02T12:49:45.672Z,59.90
2022-10-02T12:52:30.974Z,59.70
2022-10-02T12:54:57.529Z,60.10
2022-10-02T12:57:58.743Z,59.90
2022-10-02T13:01:22.824Z,59.50
2022-10-02T13:04:10.895Z,59.60
2022-10-02T13:06:55.659Z,58.90
2022-10-02T13:09:31.112Z,59.00
2022-10-02T13:12:32.338Z,58.70
2022-10-02T13:15:11.688Z,59.30
2022-10-02T13:17:46.157Z,59.40
2022-10-02T13:20:26.257Z,59.20
2022-10-02T13:23:22.495Z,59.40
2022-10-02T13:26:15.894Z,59.30
2022-10-02T13:29:09.821Z,59.20
2022-10-02T13:32:02.037Z,59.30
2022-10-02T13:34:38.348Z,59.50
2022-10-02T13:37:05.265Z,59.00
2022-10-02T13:40:02.816Z,59.40
2022-10-02T13:42:45.145Z,59.40
2022-10-02T13:45:27.231Z,59.30
2022-10-02T13:48:03.362Z,59.30
2022-10-02T13:50:46.165Z,59.90
2022-10-02T13:53:30.202Z,59.60
2022-10-02T13:56:28.040Z,59.60
2022-10-02T13:59:07.838Z,60.00
2022-10-02T14:02:19.045Z,58.90
2022-10-02T14:05:01.002Z,59.80
2022-10-02T14:08:01.400Z,58.70
2022-10-02T14:10:52.972Z,59.10
2022-10-02T14:13:42.144Z,59.20
2022-10-02T14:16:38.909Z,59.20
2022-10-02T14:19:29.198Z,58.70
2022-10-02T14:22:27.948Z,58.40
2022-10-02T14:25:20.575Z,58.90
2022-10-02T14:28:15.914Z,58.40
2022-10-02T14:30:56.299Z,58.70
2022-10-02T14:33:28.408Z,61.10
2022-10-02T14:35:55.132Z,58.50
2022-10-02T14:38:42.147Z,58.60
2022-10-02T14:41:26.919Z,58.50
2022-10-02T14:44:18.518Z,58.40
2022-10-02T14:46:59.060Z,59.20
2022-10-02T14:49:49.866Z,58.30
2022-10-02T14:52:33.453Z,58.90
2022-10-02T14:55:25.997Z,58.20
2022-10-02T14:58:26.749Z,58.80
2022-10-02T15:01:22.388Z,59.40
2022-10-02T15:04:23.122Z,58.30
2022-10-02T15:06:59.065Z,58.10
2022-10-02T15:09:46.762Z,58.10
2022-10-02T15:12:19.324Z,57.90
2022-10-02T15:15:13.612Z,57.60
2022-10-02T15:17:56.874Z,57.60
2022-10-02T15:20:34.350Z,57.60
2022-10-02T15:23:09.415Z,57.50
2022-10-02T15:26:04.973Z,57.40
2022-10-02T15:28:57.601Z,58.40
2022-10-02T15:31:41.774Z,57.90
2022-10-02T15:34:11.420Z,57.30
2022-10-02T15:37:09.835Z,57.20
2022-10-02T15:39:45.538Z,57.00
2022-10-02T15:42:26.129Z,57.10
2022-10-02T15:45:17.366Z,57.00
2022-10-02T15:48:10.053Z,57.30
2022-10-02T15:50:57.626Z,57.00
2022-10-02T15:53:34.436Z,56.90
2022-10-02T15:56:22.911Z,56.80
2022-10-02T15:58:57.514Z,56.80
2022-10-02T16:01:55.189Z,56.90
2022-10-02T16:04:40.668Z,57.30
2022-10-02T16:07:36.303Z,57.40
2022-10-02T16:10:25.373Z,57.90
2022-10-02T16:13:35.895Z,58.00
2022-10-02T16:16:16.841Z,58.30
2022-10-02T16:18:46.939Z,57.80
2022-10-02T16:21:31.145Z,57.90
2022-10-02T16:24:16.593Z,57.90
2022-10-02T16:27:20.153Z,58.00
2022-10-02T16:30:11.128Z,58.10
2022-10-02T16:32:59.765Z,58.30
2022-10-02T16:35:44.492Z,58.30
2022-10-02T16:38:15.010Z,57.90
2022-10-02T16:40:56.791Z,58.10
2022-10-02T16:43:43.172Z,58.30
2022-10-02T16:46:25.898Z,58.30
2022-10-02T16:49:28.545Z,58.30
2022-10-02T16:52:23.124Z,58.80
2022-10-02T16:55:14.171Z,58.60
2022-10-02T16:57:45.416Z,58.70
2022-10-02T17:00:37.201Z,58.70
2022-10-02T17:03:21.546Z,59.10
2022-10-02T17:06:09.694Z,59.10
2022-10-02T17:08:43.281Z,59.20
2022-10-02T17:11:25.422Z,59.10
2022-10-02T17:14:34.238Z,59.30
2022-10-02T17:17:05.628Z,59.40
2022-10-02T17:19:45.711Z,59.50
2022-10-02T17:22:44.007Z,59.60
2022-10-02T17:25:27.368Z,59.90
2022-10-02T17:28:10.449Z,59.80
2022-10-02T17:31:09.401Z,59.90
2022-10-02T17:33:51.408Z,60.30
2022-10-02T17:36:32.987Z,60.20
2022-10-02T17:39:05.894Z,60.30
2022-10-02T17:42:00.319Z,60.50
2022-10-02T17:44:53.178Z,60.50
2022-10-02T17:47:37.506Z,60.60
2022-10-02T17:50:33.354Z,60.70
2022-10-02T17:53:40.748Z,60.80
2022-10-02T17:56:32.182Z,61.00
2022-10-02T17:59:10.895Z,61.10
2022-10-02T18:01:59.109Z,61.20
2022-10-02T18:04:45.926Z,61.40
2022-10-02T18:07:33.765Z,61.60
2022-10-02T18:10:17.987Z,61.70
2022-10-02T18:12:59.686Z,61.70
2022-10-02T18:15:34.275Z,61.80
2022-10-02T18:18:24.324Z,61.90
2022-10-02T18:21:16.518Z,62.00
2022-10-02T18:24:01.941Z,62.00
2022-10-02T18:26:57.852Z,62.00
2022-10-02T18:29:45.746Z,62.10
2022-10-02T18:32:27.475Z,62.20
2022-10-02T18:35:07.314Z,62.20
2022-10-02T18:38:01.703Z,62.30
2022-10-02T18:40:48.502Z,62.30
2022-10-02T18:43:39.938Z,62.40
2022-10-02T18:46:16.971Z,62.40
2022-10-02T18:48:51.597Z,62.50
2022-10-02T18:51:48.675Z,62.50
2022-10-02T18:54:30.428Z,62.60
2022-10-02T18:57:09.217Z,62.60
2022-10-02T18:59:55.269Z,62.60
2022-10-02T19:02:28.207Z,62.60
2022-10-02T19:05:21.717Z,62.70
2022-10-02T19:08:06.046Z,62.70
2022-10-02T19:10:32.823Z,62.80
2022-10-02T19:13:29.321Z,62.70
2022-10-02T19:15:59.310Z,62.70
2022-10-02T19:18:30.850Z,62.80
2022-10-02T19:21:05.451Z,62.80
2022-10-02T19:23:46.195Z,62.90
2022-10-02T19:26:24.452Z,62.90
2022-10-02T19:28:55.847Z,62.90
2022-10-02T19:31:27.425Z,63.00
2022-10-02T19:33:57.928Z,63.00
2022-10-02T19:36:26.961Z,63.00
2022-10-02T19:38:58.303Z,63.00
2022-10-02T19:41:26.176Z,63.00
2022-10-02T19:43:58.558Z,62.90
2022-10-02T19:46:33.927Z,63.00
2022-10-02T19:49:01.995Z,63.00
2022-10-02T19:51:28.960Z,63.00
2022-10-02T19:54:04.142Z,63.00
2022-10-02T19:56:40.941Z,63.00
2022-10-02T19:59:21.060Z,63.00
2022-10-02T20:01:57.676Z,63.00
2022-10-02T20:04:31.551Z,63.00
2022-10-02T20:07:00.609Z,63.00
2022-10-02T20:09:39.088Z,63.00
2022-10-02T20:12:17.386Z,63.10
2022-10-02T20:15:42.150Z,63.10
2022-10-02T20:18:10.503Z,63.00
2022-10-02T20:20:39.344Z,62.90
2022-10-02T20:23:17.489Z,63.10
2022-10-02T20:25:53.050Z,63.20
2022-10-02T20:28:28.596Z,63.20
2022-10-02T20:31:04.076Z,63.20
2022-10-02T20:33:43.665Z,63.10
2022-10-02T20:36:17.297Z,63.10
2022-10-02T20:38:51.501Z,63.20
2022-10-02T20:41:29.410Z,63.20
2022-10-02T20:44:06.097Z,63.20
2022-10-02T20:46:52.640Z,63.20
2022-10-02T20:49:58.229Z,63.30
2022-10-02T20:52:43.046Z,63.20
2022-10-02T20:55:30.181Z,63.20
2022-10-02T20:58:46.320Z,63.10
2022-10-02T21:01:19.845Z,63.10
2022-10-02T21:03:50.048Z,63.30
2022-10-02T21:06:50.782Z,63.40
2022-10-02T21:09:26.724Z,63.30
2022-10-02T21:12:23.829Z,63.30
2022-10-02T21:14:53.491Z,63.30
2022-10-02T21:17:38.588Z,63.20
2022-10-02T21:20:22.778Z,63.40
2022-10-02T21:23:09.333Z,62.90
2022-10-02T21:25:44.832Z,63.30
2022-10-02T21:28:27.483Z,63.40
2022-10-02T21:30:57.505Z,63.50
2022-10-02T21:33:34.545Z,63.50
2022-10-02T21:36:22.421Z,63.50
2022-10-02T21:39:07.412Z,63.40
2022-10-02T21:42:04.268Z,63.40
2022-10-02T21:44:53.572Z,63.30
2022-10-02T21:47:45.256Z,63.40
2022-10-02T21:50:17.681Z,63.50
2022-10-02T21:53:09.860Z,63.50
2022-10-02T21:56:27.325Z,63.40
2022-10-02T21:59:22.746Z,63.40
2022-10-02T22:02:08.598Z,63.50
2022-10-02T22:04:36.181Z,63.50
2022-10-02T22:07:19.502Z,63.50
2022-10-02T22:09:51.616Z,63.70
2022-10-02T22:12:41.590Z,63.50
2022-10-02T22:15:45.998Z,63.60
2022-10-02T22:18:18.459Z,63.50
2022-10-02T22:20:55.829Z,63.50
2022-10-02T22:23:40.063Z,63.70
2022-10-02T22:26:37.268Z,63.70
2022-10-02T22:29:22.961Z,63.60
2022-10-02T22:32:20.402Z,63.50
2022-10-02T22:35:11.839Z,63.70
2022-10-02T22:37:47.688Z,63.60
2022-10-02T22:40:20.930Z,63.50
2022-10-02T22:42:54.523Z,63.70
2022-10-02T22:45:29.684Z,63.60
2022-10-02T22:48:23.083Z,63.70
2022-10-02T22:50:58.052Z,63.70
2022-10-02T22:53:33.152Z,63.60
2022-10-02T22:55:59.923Z,63.70
2022-10-02T22:58:39.849Z,63.60
2022-10-02T23:01:23.026Z,63.70
2022-10-02T23:03:55.140Z,63.70
2022-10-02T23:06:41.101Z,63.70
2022-10-02T23:09:24.761Z,63.70
2022-10-02T23:12:12.002Z,63.70
2022-10-02T23:14:48.332Z,63.70
2022-10-02T23:17:24.503Z,63.70
2022-10-02T23:20:22.789Z,63.70
2022-10-02T23:23:17.676Z,63.60
2022-10-02T23:26:03.903Z,63.60
2022-10-02T23:28:55.368Z,63.70
2022-10-02T23:31:32.091Z,63.80
2022-10-02T23:34:17.086Z,63.70
2022-10-02T23:36:58.101Z,63.70
2022-10-02T23:39:39.456Z,63.70
2022-10-02T23:42:10.674Z,63.70
2022-10-02T23:44:49.852Z,63.70
2022-10-02T23:47:37.605Z,63.80
2022-10-02T23:50:20.078Z,63.80
2022-10-02T23:52:56.016Z,63.80
2022-10-02T23:56:11.972Z,63.80
2022-10-02T23:58:56.904Z,63.40
